sensor_id;sensor_type;location;lat;lon;timestamp;pressure;altitude;pressure_sealevel;temperature;humidity
51417;BME280;50158;51.528;6.982;2022-08-20T00:01:07;68560;;;20.09;100
51417;BME280;50158;51.528;6.982;2022-08-20T00:03:36;68550;;;20.08;100
51417;BME280;50158;51.528;6.982;2022-08-20T00:06:09;68550;;;20.04;100
51417;BME280;50158;51.528;6.982;2022-08-20T00:11:19;68530;;;19.89;100
51417;BME280;50158;51.528;6.982;2022-08-20T00:16:14;68520;;;19.81;100
51417;BME280;50158;51.528;6.982;2022-08-20T00:18:41;68520;;;19.78;100
51417;BME280;50158;51.528;6.982;2022-08-20T00:21:11;68520;;;19.79;100
51417;BME280;50158;51.528;6.982;2022-08-20T00:23:39;68520;;;19.76;100
51417;BME280;50158;51.528;6.982;2022-08-20T00:26:06;68520;;;19.74;100
51417;BME280;50158;51.528;6.982;2022-08-20T00:28:34;68510;;;19.71;100
51417;BME280;50158;51.528;6.982;2022-08-20T00:31:04;68520;;;19.76;100
51417;BME280;50158;51.528;6.982;2022-08-20T00:33:31;68520;;;19.74;100
51417;BME280;50158;51.528;6.982;2022-08-20T00:35:59;68530;;;19.81;100
51417;BME280;50158;51.528;6.982;2022-08-20T00:38:27;68510;;;19.7;100
51417;BME280;50158;51.528;6.982;2022-08-20T00:40:56;68520;;;19.74;100
51417;BME280;50158;51.528;6.982;2022-08-20T00:43:27;68510;;;19.67;100
51417;BME280;50158;51.528;6.982;2022-08-20T00:45:52;68510;;;19.62;100
51417;BME280;50158;51.528;6.982;2022-08-20T00:48:21;68510;;;19.64;100
51417;BME280;50158;51.528;6.982;2022-08-20T00:52:45;68500;;;19.57;100
51417;BME280;50158;51.528;6.982;2022-08-20T00:55:13;68490;;;19.53;100
51417;BME280;50158;51.528;6.982;2022-08-20T00:57:43;68500;;;19.59;100
51417;BME280;50158;51.528;6.982;2022-08-20T01:00:13;68500;;;19.56;100
51417;BME280;50158;51.528;6.982;2022-08-20T01:02:37;68500;;;19.54;100
51417;BME280;50158;51.528;6.982;2022-08-20T01:05:06;68490;;;19.48;100
51417;BME280;50158;51.528;6.982;2022-08-20T01:07:34;68490;;;19.53;100
51417;BME280;50158;51.528;6.982;2022-08-20T01:10:07;68500;;;19.56;100
51417;BME280;50158;51.528;6.982;2022-08-20T01:12:30;68490;;;19.45;100
51417;BME280;50158;51.528;6.982;2022-08-20T01:14:59;68490;;;19.45;100
51417;BME280;50158;51.528;6.982;2022-08-20T01:17:28;68490;;;19.45;100
51417;BME280;50158;51.528;6.982;2022-08-20T01:19:58;68480;;;19.36;100
51417;BME280;50158;51.528;6.982;2022-08-20T01:22:34;68470;;;19.29;100
51417;BME280;50158;51.528;6.982;2022-08-20T01:24:54;68460;;;19.26;100
51417;BME280;50158;51.528;6.982;2022-08-20T01:27:20;68460;;;19.24;100
51417;BME280;50158;51.528;6.982;2022-08-20T01:29:48;68470;;;19.28;100
51417;BME280;50158;51.528;6.982;2022-08-20T01:32:17;68480;;;19.37;100
51417;BME280;50158;51.528;6.982;2022-08-20T01:34:45;68470;;;19.32;100
51417;BME280;50158;51.528;6.982;2022-08-20T01:37:13;68460;;;19.19;100
51417;BME280;50158;51.528;6.982;2022-08-20T01:39:41;68470;;;19.27;100
51417;BME280;50158;51.528;6.982;2022-08-20T01:42:12;68460;;;19.24;100
51417;BME280;50158;51.528;6.982;2022-08-20T01:44:39;68460;;;19.18;100
51417;BME280;50158;51.528;6.982;2022-08-20T01:49:11;68460;;;19.23;100
51417;BME280;50158;51.528;6.982;2022-08-20T01:51:30;68450;;;19.12;100
51417;BME280;50158;51.528;6.982;2022-08-20T01:53:58;68450;;;19.11;100
51417;BME280;50158;51.528;6.982;2022-08-20T01:56:28;68440;;;19.07;100
51417;BME280;50158;51.528;6.982;2022-08-20T01:58:56;68440;;;19.03;100
51417;BME280;50158;51.528;6.982;2022-08-20T02:01:25;68440;;;18.99;100
51417;BME280;50158;51.528;6.982;2022-08-20T02:03:52;68430;;;18.95;100
51417;BME280;50158;51.528;6.982;2022-08-20T02:06:20;68440;;;19.03;100
51417;BME280;50158;51.528;6.982;2022-08-20T02:08:48;68440;;;19.01;100
51417;BME280;50158;51.528;6.982;2022-08-20T02:11:16;68430;;;18.93;100
51417;BME280;50158;51.528;6.982;2022-08-20T02:13:45;68430;;;18.95;100
51417;BME280;50158;51.528;6.982;2022-08-20T02:16:13;68430;;;18.96;100
51417;BME280;50158;51.528;6.982;2022-08-20T02:18:41;68430;;;18.96;100
51417;BME280;50158;51.528;6.982;2022-08-20T02:21:09;68430;;;18.91;100
51417;BME280;50158;51.528;6.982;2022-08-20T02:23:38;68430;;;18.91;100
51417;BME280;50158;51.528;6.982;2022-08-20T02:26:06;68420;;;18.87;100
51417;BME280;50158;51.528;6.982;2022-08-20T02:28:34;68440;;;19.04;100
51417;BME280;50158;51.528;6.982;2022-08-20T02:31:03;68440;;;19.07;100
51417;BME280;50158;51.528;6.982;2022-08-20T02:33:31;68440;;;19.06;100
51417;BME280;50158;51.528;6.982;2022-08-20T02:35:59;68440;;;19.02;100
51417;BME280;50158;51.528;6.982;2022-08-20T02:41:12;68440;;;19.01;100
51417;BME280;50158;51.528;6.982;2022-08-20T02:43:40;68430;;;18.95;100
51417;BME280;50158;51.528;6.982;2022-08-20T02:46:09;68440;;;19.07;100
51417;BME280;50158;51.528;6.982;2022-08-20T02:48:37;68450;;;19.1;100
51417;BME280;50158;51.528;6.982;2022-08-20T02:51:05;68440;;;19.07;100
51417;BME280;50158;51.528;6.982;2022-08-20T02:55:29;68430;;;18.92;100
51417;BME280;50158;51.528;6.982;2022-08-20T02:57:58;68430;;;18.94;100
51417;BME280;50158;51.528;6.982;2022-08-20T03:00:26;68420;;;18.83;100
51417;BME280;50158;51.528;6.982;2022-08-20T03:02:54;68420;;;18.82;100
51417;BME280;50158;51.528;6.982;2022-08-20T03:05:22;68420;;;18.82;100
51417;BME280;50158;51.528;6.982;2022-08-20T03:07:51;68420;;;18.85;100
51417;BME280;50158;51.528;6.982;2022-08-20T03:10:21;68430;;;18.91;100
51417;BME280;50158;51.528;6.982;2022-08-20T03:12:47;68420;;;18.85;100
51417;BME280;50158;51.528;6.982;2022-08-20T03:15:15;68420;;;18.84;100
51417;BME280;50158;51.528;6.982;2022-08-20T03:17:43;68410;;;18.7;100
51417;BME280;50158;51.528;6.982;2022-08-20T03:20:12;68390;;;18.59;100
51417;BME280;50158;51.528;6.982;2022-08-20T03:22:40;68390;;;18.54;100
51417;BME280;50158;51.528;6.982;2022-08-20T03:25:09;68390;;;18.53;100
51417;BME280;50158;51.528;6.982;2022-08-20T03:27:36;68380;;;18.52;100
51417;BME280;50158;51.528;6.982;2022-08-20T03:30:06;68390;;;18.53;100
51417;BME280;50158;51.528;6.982;2022-08-20T03:32:33;68390;;;18.58;100
51417;BME280;50158;51.528;6.982;2022-08-20T03:35:02;68390;;;18.6;100
51417;BME280;50158;51.528;6.982;2022-08-20T03:37:30;68410;;;18.74;100
51417;BME280;50158;51.528;6.982;2022-08-20T03:39:58;68420;;;18.87;100
51417;BME280;50158;51.528;6.982;2022-08-20T03:42:26;68420;;;18.84;100
51417;BME280;50158;51.528;6.982;2022-08-20T03:44:54;68430;;;18.94;100
51417;BME280;50158;51.528;6.982;2022-08-20T03:47:23;68420;;;18.87;100
51417;BME280;50158;51.528;6.982;2022-08-20T03:51:46;68410;;;18.73;100
51417;BME280;50158;51.528;6.982;2022-08-20T03:54:15;68410;;;18.77;100
51417;BME280;50158;51.528;6.982;2022-08-20T03:56:43;68410;;;18.76;100
51417;BME280;50158;51.528;6.982;2022-08-20T03:59:11;68400;;;18.67;100
51417;BME280;50158;51.528;6.982;2022-08-20T04:01:40;68400;;;18.64;100
51417;BME280;50158;51.528;6.982;2022-08-20T04:04:08;68410;;;18.71;100
51417;BME280;50158;51.528;6.982;2022-08-20T04:06:36;68410;;;18.71;100
51417;BME280;50158;51.528;6.982;2022-08-20T04:09:04;68400;;;18.67;100
51417;BME280;50158;51.528;6.982;2022-08-20T04:11:33;68400;;;18.69;100
51417;BME280;50158;51.528;6.982;2022-08-20T04:14:01;68400;;;18.62;100
51417;BME280;50158;51.528;6.982;2022-08-20T04:16:29;68390;;;18.59;100
51417;BME280;50158;51.528;6.982;2022-08-20T04:18:58;68400;;;18.64;100
51417;BME280;50158;51.528;6.982;2022-08-20T04:23:54;68390;;;18.54;100
51417;BME280;50158;51.528;6.982;2022-08-20T04:26:22;68380;;;18.52;100
51417;BME280;50158;51.528;6.982;2022-08-20T04:28:51;68380;;;18.51;100
51417;BME280;50158;51.528;6.982;2022-08-20T04:31:19;68390;;;18.58;100
51417;BME280;50158;51.528;6.982;2022-08-20T04:33:47;68390;;;18.56;100
51417;BME280;50158;51.528;6.982;2022-08-20T04:36:15;68390;;;18.54;100
51417;BME280;50158;51.528;6.982;2022-08-20T04:38:44;68390;;;18.54;100
51417;BME280;50158;51.528;6.982;2022-08-20T04:41:12;68410;;;18.79;100
51417;BME280;50158;51.528;6.982;2022-08-20T04:43:40;68410;;;18.78;100
51417;BME280;50158;51.528;6.982;2022-08-20T04:46:09;68410;;;18.75;100
51417;BME280;50158;51.528;6.982;2022-08-20T04:48:37;68400;;;18.7;100
51417;BME280;50158;51.528;6.982;2022-08-20T04:53:02;68400;;;18.71;100
51417;BME280;50158;51.528;6.982;2022-08-20T04:55:29;68400;;;18.7;100
51417;BME280;50158;51.528;6.982;2022-08-20T04:58:01;68410;;;18.77;100
51417;BME280;50158;51.528;6.982;2022-08-20T05:00:25;68420;;;18.86;100
51417;BME280;50158;51.528;6.982;2022-08-20T05:02:54;68440;;;19.06;100
51417;BME280;50158;51.528;6.982;2022-08-20T05:05:22;68450;;;19.12;100
51417;BME280;50158;51.528;6.982;2022-08-20T05:07:50;68440;;;19.03;100
51417;BME280;50158;51.528;6.982;2022-08-20T05:13:04;68460;;;19.19;100
51417;BME280;50158;51.528;6.982;2022-08-20T05:15:32;68450;;;19.11;100
51417;BME280;50158;51.528;6.982;2022-08-20T05:18:00;68450;;;19.1;100
51417;BME280;50158;51.528;6.982;2022-08-20T05:20:29;68450;;;19.11;100
51417;BME280;50158;51.528;6.982;2022-08-20T05:22:57;68450;;;19.14;100
51417;BME280;50158;51.528;6.982;2022-08-20T05:25:25;68460;;;19.21;100
51417;BME280;50158;51.528;6.982;2022-08-20T05:27:55;68460;;;19.17;100
51417;BME280;50158;51.528;6.982;2022-08-20T05:30:21;68460;;;19.24;100
51417;BME280;50158;51.528;6.982;2022-08-20T05:32:49;68460;;;19.24;100
51417;BME280;50158;51.528;6.982;2022-08-20T05:35:18;68470;;;19.33;100
51417;BME280;50158;51.528;6.982;2022-08-20T05:37:46;68470;;;19.27;100
51417;BME280;50158;51.528;6.982;2022-08-20T05:40:14;68470;;;19.33;100
51417;BME280;50158;51.528;6.982;2022-08-20T05:42:43;68470;;;19.29;100
51417;BME280;50158;51.528;6.982;2022-08-20T05:45:11;68480;;;19.36;100
51417;BME280;50158;51.528;6.982;2022-08-20T05:47:39;68480;;;19.4;100
51417;BME280;50158;51.528;6.982;2022-08-20T05:50:08;68480;;;19.43;100
51417;BME280;50158;51.528;6.982;2022-08-20T05:54:31;68500;;;19.61;100
51417;BME280;50158;51.528;6.982;2022-08-20T05:56:59;68500;;;19.62;100
51417;BME280;50158;51.528;6.982;2022-08-20T05:59:28;68500;;;19.56;100
51417;BME280;50158;51.528;6.982;2022-08-20T06:01:56;68510;;;19.68;100
51417;BME280;50158;51.528;6.982;2022-08-20T06:06:54;68520;;;19.75;100
51417;BME280;50158;51.528;6.982;2022-08-20T06:09:22;68510;;;19.69;100
51417;BME280;50158;51.528;6.982;2022-08-20T06:11:49;68520;;;19.75;100
51417;BME280;50158;51.528;6.982;2022-08-20T06:14:17;68540;;;19.92;100
51417;BME280;50158;51.528;6.982;2022-08-20T06:16:46;68530;;;19.84;100
51417;BME280;50158;51.528;6.982;2022-08-20T06:19:14;68520;;;19.76;100
51417;BME280;50158;51.528;6.982;2022-08-20T06:21:42;68510;;;19.69;100
51417;BME280;50158;51.528;6.982;2022-08-20T06:24:10;68520;;;19.82;100
51417;BME280;50158;51.528;6.982;2022-08-20T06:26:39;68500;;;19.62;100
51417;BME280;50158;51.528;6.982;2022-08-20T06:29:07;68530;;;19.85;100
51417;BME280;50158;51.528;6.982;2022-08-20T06:31:35;68510;;;19.66;100
51417;BME280;50158;51.528;6.982;2022-08-20T06:34:04;68510;;;19.65;100
51417;BME280;50158;51.528;6.982;2022-08-20T06:36:32;68510;;;19.65;100
51417;BME280;50158;51.528;6.982;2022-08-20T06:39:00;68510;;;19.71;100
51417;BME280;50158;51.528;6.982;2022-08-20T06:41:28;68520;;;19.73;100
51417;BME280;50158;51.528;6.982;2022-08-20T06:43:57;68520;;;19.79;100
51417;BME280;50158;51.528;6.982;2022-08-20T06:46:25;68520;;;19.75;100
51417;BME280;50158;51.528;6.982;2022-08-20T06:48:53;68520;;;19.76;100
51417;BME280;50158;51.528;6.982;2022-08-20T06:51:22;68520;;;19.83;100
51417;BME280;50158;51.528;6.982;2022-08-20T06:53:50;68520;;;19.82;100
51417;BME280;50158;51.528;6.982;2022-08-20T06:56:18;68530;;;19.89;100
51417;BME280;50158;51.528;6.982;2022-08-20T07:00:42;68540;;;19.96;100
51417;BME280;50158;51.528;6.982;2022-08-20T07:03:10;68540;;;19.95;100
51417;BME280;50158;51.528;6.982;2022-08-20T07:05:39;68550;;;20.09;100
51417;BME280;50158;51.528;6.982;2022-08-20T07:08:08;68530;;;19.91;100
51417;BME280;50158;51.528;6.982;2022-08-20T07:10:35;68530;;;19.89;100
51417;BME280;50158;51.528;6.982;2022-08-20T07:13:03;68540;;;19.94;100
51417;BME280;50158;51.528;6.982;2022-08-20T07:15:32;68540;;;19.95;100
51417;BME280;50158;51.528;6.982;2022-08-20T07:18:00;68560;;;20.14;100
51417;BME280;50158;51.528;6.982;2022-08-20T07:20:29;68550;;;20.03;100
51417;BME280;50158;51.528;6.982;2022-08-20T07:22:56;68580;;;20.33;100
51417;BME280;50158;51.528;6.982;2022-08-20T07:25:25;68580;;;20.28;100
51417;BME280;50158;51.528;6.982;2022-08-20T07:27:57;68570;;;20.26;100
51417;BME280;50158;51.528;6.982;2022-08-20T07:30:23;68600;;;20.52;100
51417;BME280;50158;51.528;6.982;2022-08-20T07:32:49;68600;;;20.52;100
51417;BME280;50158;51.528;6.982;2022-08-20T07:35:18;68620;;;20.67;100
51417;BME280;50158;51.528;6.982;2022-08-20T07:37:47;68600;;;20.52;100
51417;BME280;50158;51.528;6.982;2022-08-20T07:42:59;68600;;;20.52;100
51417;BME280;50158;51.528;6.982;2022-08-20T07:45:28;68610;;;20.61;100
51417;BME280;50158;51.528;6.982;2022-08-20T07:48:04;68620;;;20.69;100
51417;BME280;50158;51.528;6.982;2022-08-20T07:50:24;68610;;;20.62;100
51417;BME280;50158;51.528;6.982;2022-08-20T07:52:52;68620;;;20.69;100
51417;BME280;50158;51.528;6.982;2022-08-20T07:57:16;68640;;;20.86;100
51417;BME280;50158;51.528;6.982;2022-08-20T07:59:44;68640;;;20.88;100
51417;BME280;50158;51.528;6.982;2022-08-20T08:02:12;68660;;;21.07;100
51417;BME280;50158;51.528;6.982;2022-08-20T08:04:41;68650;;;20.98;100
51417;BME280;50158;51.528;6.982;2022-08-20T08:07:09;68660;;;21.1;100
51417;BME280;50158;51.528;6.982;2022-08-20T08:09:37;68690;;;21.35;100
51417;BME280;50158;51.528;6.982;2022-08-20T08:12:06;68700;;;21.45;100
51417;BME280;50158;51.528;6.982;2022-08-20T08:14:34;68690;;;21.37;100
51417;BME280;50158;51.528;6.982;2022-08-20T08:17:02;68710;;;21.5;100
51417;BME280;50158;51.528;6.982;2022-08-20T08:19:32;68740;;;21.76;100
51417;BME280;50158;51.528;6.982;2022-08-20T08:21:59;68750;;;21.93;100
51417;BME280;50158;51.528;6.982;2022-08-20T08:24:27;68740;;;21.82;100
51417;BME280;50158;51.528;6.982;2022-08-20T08:26:55;68730;;;21.74;100
51417;BME280;50158;51.528;6.982;2022-08-20T08:29:23;68730;;;21.69;100
51417;BME280;50158;51.528;6.982;2022-08-20T08:31:52;68720;;;21.66;100
51417;BME280;50158;51.528;6.982;2022-08-20T08:34:20;68760;;;21.96;100
51417;BME280;50158;51.528;6.982;2022-08-20T08:36:48;68760;;;22.03;100
51417;BME280;50158;51.528;6.982;2022-08-20T08:39:17;68730;;;21.75;100
51417;BME280;50158;51.528;6.982;2022-08-20T08:41:46;68740;;;21.81;100
51417;BME280;50158;51.528;6.982;2022-08-20T08:44:17;68730;;;21.72;100
51417;BME280;50158;51.528;6.982;2022-08-20T08:46:42;68730;;;21.72;100
51417;BME280;50158;51.528;6.982;2022-08-20T08:49:11;68720;;;21.64;100
51417;BME280;50158;51.528;6.982;2022-08-20T08:51:39;68750;;;21.86;100
51417;BME280;50158;51.528;6.982;2022-08-20T08:54:06;68750;;;21.92;100
51417;BME280;50158;51.528;6.982;2022-08-20T08:58:30;68780;;;22.15;100
51417;BME280;50158;51.528;6.982;2022-08-20T09:01:00;68800;;;22.32;100
51417;BME280;50158;51.528;6.982;2022-08-20T09:03:29;68810;;;22.46;100
51417;BME280;50158;51.528;6.982;2022-08-20T09:05:56;68840;;;22.75;100
51417;BME280;50158;51.528;6.982;2022-08-20T09:08:24;68820;;;22.55;100
51417;BME280;50158;51.528;6.982;2022-08-20T09:10:51;68820;;;22.57;99.89
51417;BME280;50158;51.528;6.982;2022-08-20T09:15:48;68740;;;21.78;100
51417;BME280;50158;51.528;6.982;2022-08-20T09:18:16;68720;;;21.58;100
51417;BME280;50158;51.528;6.982;2022-08-20T09:20:44;68700;;;21.44;100
51417;BME280;50158;51.528;6.982;2022-08-20T09:23:13;68740;;;21.76;100
51417;BME280;50158;51.528;6.982;2022-08-20T09:25:41;68750;;;21.88;100
51417;BME280;50158;51.528;6.982;2022-08-20T09:28:09;68700;;;21.43;100
51417;BME280;50158;51.528;6.982;2022-08-20T09:30:38;68730;;;21.72;100
51417;BME280;50158;51.528;6.982;2022-08-20T09:33:06;68740;;;21.82;100
51417;BME280;50158;51.528;6.982;2022-08-20T09:35:34;68690;;;21.35;100
51417;BME280;50158;51.528;6.982;2022-08-20T09:38:02;68700;;;21.43;100
51417;BME280;50158;51.528;6.982;2022-08-20T09:40:31;68680;;;21.25;100
51417;BME280;50158;51.528;6.982;2022-08-20T09:42:59;68700;;;21.44;100
51417;BME280;50158;51.528;6.982;2022-08-20T09:45:27;68800;;;22.38;100
51417;BME280;50158;51.528;6.982;2022-08-20T09:47:56;68790;;;22.24;100
51417;BME280;50158;51.528;6.982;2022-08-20T09:50:25;68740;;;21.8;100
51417;BME280;50158;51.528;6.982;2022-08-20T09:52:52;68710;;;21.53;100
51417;BME280;50158;51.528;6.982;2022-08-20T09:55:23;68760;;;21.94;100
51417;BME280;50158;51.528;6.982;2022-08-20T09:59:45;68790;;;22.26;100
51417;BME280;50158;51.528;6.982;2022-08-20T10:02:12;68760;;;21.98;100
51417;BME280;50158;51.528;6.982;2022-08-20T10:04:41;68780;;;22.16;100
51417;BME280;50158;51.528;6.982;2022-08-20T10:07:09;68830;;;22.62;100
51417;BME280;50158;51.528;6.982;2022-08-20T10:12:22;68820;;;22.5;100
51417;BME280;50158;51.528;6.982;2022-08-20T10:14:50;68820;;;22.49;100
51417;BME280;50158;51.528;6.982;2022-08-20T10:17:18;68820;;;22.56;100
51417;BME280;50158;51.528;6.982;2022-08-20T10:19:47;68810;;;22.47;100
51417;BME280;50158;51.528;6.982;2022-08-20T10:24:43;68810;;;22.43;100
51417;BME280;50158;51.528;6.982;2022-08-20T10:27:12;68790;;;22.31;100
51417;BME280;50158;51.528;6.982;2022-08-20T10:29:40;68750;;;21.87;100
51417;BME280;50158;51.528;6.982;2022-08-20T10:32:09;68740;;;21.79;100
51417;BME280;50158;51.528;6.982;2022-08-20T10:37:05;68740;;;21.83;100
51417;BME280;50158;51.528;6.982;2022-08-20T10:39:33;68710;;;21.52;100
51417;BME280;50158;51.528;6.982;2022-08-20T10:42:01;68690;;;21.39;100
51417;BME280;50158;51.528;6.982;2022-08-20T10:44:29;68740;;;21.84;100
51417;BME280;50158;51.528;6.982;2022-08-20T10:47:03;68800;;;22.35;100
51417;BME280;50158;51.528;6.982;2022-08-20T10:49:26;68810;;;22.43;100
51417;BME280;50158;51.528;6.982;2022-08-20T10:51:54;68780;;;22.17;100
51417;BME280;50158;51.528;6.982;2022-08-20T10:54:23;68750;;;21.9;100
51417;BME280;50158;51.528;6.982;2022-08-20T10:56:51;68750;;;21.92;100
51417;BME280;50158;51.528;6.982;2022-08-20T11:01:15;68820;;;22.53;100
51417;BME280;50158;51.528;6.982;2022-08-20T11:03:43;68890;;;23.19;99.32
51417;BME280;50158;51.528;6.982;2022-08-20T11:06:11;69020;;;24.35;92.43
51417;BME280;50158;51.528;6.982;2022-08-20T11:08:39;69060;;;24.7;90.36
51417;BME280;50158;51.528;6.982;2022-08-20T11:11:08;69110;;;25.16;86
51417;BME280;50158;51.528;6.982;2022-08-20T11:13:36;69160;;;25.68;82.9
51417;BME280;50158;51.528;6.982;2022-08-20T11:16:04;69190;;;25.91;81.7
51417;BME280;50158;51.528;6.982;2022-08-20T11:18:33;69310;;;27.04;78.24
51417;BME280;50158;51.528;6.982;2022-08-20T11:21:01;69370;;;27.6;73.2
51417;BME280;50158;51.528;6.982;2022-08-20T11:23:29;69260;;;26.54;75.75
51417;BME280;50158;51.528;6.982;2022-08-20T11:25:57;69120;;;25.29;80.39
51417;BME280;50158;51.528;6.982;2022-08-20T11:28:26;69010;;;24.26;85.27
51417;BME280;50158;51.528;6.982;2022-08-20T11:30:54;68950;;;23.73;84.17
51417;BME280;50158;51.528;6.982;2022-08-20T11:33:22;68930;;;23.53;88.16
51417;BME280;50158;51.528;6.982;2022-08-20T11:35:51;68970;;;23.92;87.97
51417;BME280;50158;51.528;6.982;2022-08-20T11:38:19;69080;;;24.92;84.07
51417;BME280;50158;51.528;6.982;2022-08-20T11:40:47;69170;;;25.79;81.17
51417;BME280;50158;51.528;6.982;2022-08-20T11:43:15;69190;;;25.95;80.35
51417;BME280;50158;51.528;6.982;2022-08-20T11:45:44;69240;;;26.36;79.89
51417;BME280;50158;51.528;6.982;2022-08-20T11:48:12;69240;;;26.36;76.19
51417;BME280;50158;51.528;6.982;2022-08-20T11:53:08;69170;;;25.75;77.91
51417;BME280;50158;51.528;6.982;2022-08-20T11:58:05;69170;;;25.74;77.84
51417;BME280;50158;51.528;6.982;2022-08-20T12:02:29;69130;;;25.36;76.43
51417;BME280;50158;51.528;6.982;2022-08-20T12:07:25;69060;;;24.69;82.76
51417;BME280;50158;51.528;6.982;2022-08-20T12:09:54;69090;;;25.02;81.15
51417;BME280;50158;51.528;6.982;2022-08-20T12:12:22;69170;;;25.74;77.19
51417;BME280;50158;51.528;6.982;2022-08-20T12:14:51;69190;;;25.93;77.66
51417;BME280;50158;51.528;6.982;2022-08-20T12:17:20;69260;;;26.52;71.51
51417;BME280;50158;51.528;6.982;2022-08-20T12:19:47;69350;;;27.41;68.91
51417;BME280;50158;51.528;6.982;2022-08-20T12:22:15;69340;;;27.3;65.86
51417;BME280;50158;51.528;6.982;2022-08-20T12:27:14;69270;;;26.65;68.36
51417;BME280;50158;51.528;6.982;2022-08-20T12:29:40;69190;;;25.88;70.67
51417;BME280;50158;51.528;6.982;2022-08-20T12:32:08;69250;;;26.47;68.72
51417;BME280;50158;51.528;6.982;2022-08-20T12:34:37;69250;;;26.46;68.66
51417;BME280;50158;51.528;6.982;2022-08-20T12:37:07;69160;;;25.66;67.92
51417;BME280;50158;51.528;6.982;2022-08-20T12:42:18;69010;;;24.31;72.16
51417;BME280;50158;51.528;6.982;2022-08-20T12:44:46;69050;;;24.62;69.16
51417;BME280;50158;51.528;6.982;2022-08-20T12:47:23;69280;;;26.79;60.08
51417;BME280;50158;51.528;6.982;2022-08-20T12:49:44;69330;;;27.23;57.87
51417;BME280;50158;51.528;6.982;2022-08-20T12:52:11;69130;;;25.4;63.7
51417;BME280;50158;51.528;6.982;2022-08-20T12:54:39;69100;;;25.13;62.58
51417;BME280;50158;51.528;6.982;2022-08-20T12:57:12;69010;;;24.25;65.13
51417;BME280;50158;51.528;6.982;2022-08-20T12:59:36;69030;;;24.49;66.2
51417;BME280;50158;51.528;6.982;2022-08-20T13:03:59;69240;;;26.42;58.3
51417;BME280;50158;51.528;6.982;2022-08-20T13:06:28;69300;;;26.88;58.5
51417;BME280;50158;51.528;6.982;2022-08-20T13:08:56;69360;;;27.44;56.22
51417;BME280;50158;51.528;6.982;2022-08-20T13:11:24;69400;;;27.87;56.16
51417;BME280;50158;51.528;6.982;2022-08-20T13:13:52;69400;;;27.81;53.1
51417;BME280;50158;51.528;6.982;2022-08-20T13:16:21;69250;;;26.5;55.6
51417;BME280;50158;51.528;6.982;2022-08-20T13:18:49;69340;;;27.26;54
51417;BME280;50158;51.528;6.982;2022-08-20T13:21:17;69250;;;26.51;55.86
51417;BME280;50158;51.528;6.982;2022-08-20T13:23:46;69220;;;26.17;56.95
51417;BME280;50158;51.528;6.982;2022-08-20T13:26:14;69280;;;26.75;57.26
51417;BME280;50158;51.528;6.982;2022-08-20T13:28:42;69380;;;27.65;56.58
51417;BME280;50158;51.528;6.982;2022-08-20T13:31:10;69510;;;28.82;53.26
51417;BME280;50158;51.528;6.982;2022-08-20T13:33:39;69430;;;28.11;57.6
51417;BME280;50158;51.528;6.982;2022-08-20T13:36:07;69560;;;29.33;55.69
51417;BME280;50158;51.528;6.982;2022-08-20T13:38:35;69460;;;28.41;55.93
51417;BME280;50158;51.528;6.982;2022-08-20T13:41:03;69540;;;29.09;57.79
51417;BME280;50158;51.528;6.982;2022-08-20T13:43:32;69400;;;27.8;57.91
51417;BME280;50158;51.528;6.982;2022-08-20T13:46:00;69320;;;27.08;61.18
51417;BME280;50158;51.528;6.982;2022-08-20T13:48:28;69190;;;25.87;65.99
51417;BME280;50158;51.528;6.982;2022-08-20T13:50:57;69120;;;25.28;69.41
51417;BME280;50158;51.528;6.982;2022-08-20T13:53:25;69030;;;24.48;73.57
51417;BME280;50158;51.528;6.982;2022-08-20T13:55:53;69040;;;24.58;73.14
51417;BME280;50158;51.528;6.982;2022-08-20T13:58:21;69020;;;24.31;73.45
51417;BME280;50158;51.528;6.982;2022-08-20T14:00:50;69020;;;24.35;73.08
51417;BME280;50158;51.528;6.982;2022-08-20T14:03:18;69010;;;24.28;73.33
51417;BME280;50158;51.528;6.982;2022-08-20T14:05:46;69030;;;24.42;73.48
51417;BME280;50158;51.528;6.982;2022-08-20T14:10:12;69010;;;24.27;75.96
51417;BME280;50158;51.528;6.982;2022-08-20T14:12:39;69000;;;24.17;75.51
51417;BME280;50158;51.528;6.982;2022-08-20T14:15:07;68980;;;23.95;75.55
51417;BME280;50158;51.528;6.982;2022-08-20T14:17:36;68980;;;24;73.83
51417;BME280;50158;51.528;6.982;2022-08-20T14:22:31;68980;;;24;70.68
51417;BME280;50158;51.528;6.982;2022-08-20T14:25:00;69010;;;24.28;70.62
51417;BME280;50158;51.528;6.982;2022-08-20T14:27:29;69060;;;24.69;69.85
51417;BME280;50158;51.528;6.982;2022-08-20T14:29:57;69070;;;24.79;68.07
51417;BME280;50158;51.528;6.982;2022-08-20T14:32:25;69060;;;24.74;66.95
51417;BME280;50158;51.528;6.982;2022-08-20T14:34:53;69080;;;24.95;68.03
51417;BME280;50158;51.528;6.982;2022-08-20T14:37:23;69100;;;25.08;66.25
51417;BME280;50158;51.528;6.982;2022-08-20T14:39:51;69190;;;25.93;63.2
51417;BME280;50158;51.528;6.982;2022-08-20T14:42:18;69280;;;26.76;60
51417;BME280;50158;51.528;6.982;2022-08-20T14:44:46;69480;;;28.56;58.63
51417;BME280;50158;51.528;6.982;2022-08-20T14:47:17;69470;;;28.53;54.88
51417;BME280;50158;51.528;6.982;2022-08-20T14:49:43;69370;;;27.6;55.32
51417;BME280;50158;51.528;6.982;2022-08-20T14:52:12;69230;;;26.29;56.23
51417;BME280;50158;51.528;6.982;2022-08-20T14:54:39;69210;;;26.11;56.71
51417;BME280;50158;51.528;6.982;2022-08-20T14:57:07;69140;;;25.48;57.43
51417;BME280;50158;51.528;6.982;2022-08-20T14:59:36;69140;;;25.5;58.99
51417;BME280;50158;51.528;6.982;2022-08-20T15:02:04;69090;;;25;59.26
51417;BME280;50158;51.528;6.982;2022-08-20T15:06:28;69080;;;24.94;59.46
51417;BME280;50158;51.528;6.982;2022-08-20T15:11:41;69110;;;25.17;59.67